Time;durP1;ratioP1;P1;durP2;ratioP2;P2;SDS_P1;SDS_P2;PMS_P1;PMS_P2;Temp;Humidity;BMP_temperature;BMP_pressure;BME280_temperature;BME280_humidity;BME280_pressure;Samples;Min_cycle;Max_cycle;Signal;HPM_P1;HPM_P2
2022/08/23 00:01:25;;;;;;;0.40;0.40;;;19.60;59.60;;;;;;5073620;28;20311;-57
2022/08/23 00:03:52;;;;;;;0.80;0.50;;;19.60;59.70;;;;;;5080757;28;20184;-58
2022/08/23 00:06:18;;;;;;;0.40;0.40;;;19.60;59.10;;;;;;5062229;28;20217;-58
2022/08/23 00:08:45;;;;;;;0.37;0.37;;;19.60;59.30;;;;;;5059081;28;20219;-58
2022/08/23 00:11:33;;;;;;;0.40;0.40;;;19.60;59.90;;;;;;5075773;28;20192;-58
2022/08/23 00:14:04;;;;;;;0.60;0.50;;;19.60;58.80;;;;;;5083291;28;20220;-57
2022/08/23 00:16:30;;;;;;;0.87;0.30;;;19.70;59.30;;;;;;5063497;28;20205;-58
2022/08/23 00:18:55;;;;;;;0.40;0.40;;;19.70;58.60;;;;;;5040891;28;20211;-58
2022/08/23 00:21:22;;;;;;;0.30;0.30;;;19.70;58.90;;;;;;5079472;28;20189;-58
2022/08/23 00:23:47;;;;;;;0.30;0.30;;;19.70;57.80;;;;;;5078497;28;20181;-58
2022/08/23 00:26:13;;;;;;;0.87;0.87;;;19.70;57.60;;;;;;5054649;28;20308;-58
2022/08/23 00:28:40;;;;;;;0.30;0.30;;;19.70;57.80;;;;;;5039452;28;20229;-58
2022/08/23 00:31:05;;;;;;;0.93;0.80;;;19.70;57.80;;;;;;5023767;28;20190;-58
2022/08/23 00:33:31;;;;;;;0.30;0.30;;;19.80;57.80;;;;;;5048989;28;20196;-58
2022/08/23 00:35:57;;;;;;;1.13;0.67;;;19.70;58.00;;;;;;5039461;28;20202;-58
2022/08/23 00:38:24;;;;;;;0.37;0.37;;;19.80;58.20;;;;;;5026042;28;20197;-57
2022/08/23 00:40:52;;;;;;;0.63;0.47;;;19.80;58.40;;;;;;5042000;28;20385;-57
2022/08/23 00:49:28;;;;;;;1.43;0.40;;;19.80;58.10;;;;;;5076609;28;20185;-58
2022/08/23 00:52:07;;;;;;;0.80;0.80;;;19.80;59.20;;;;;;5033994;28;20272;-58
2022/08/23 00:54:35;;;;;;;1.00;0.53;;;19.80;61.80;;;;;;5065022;28;20216;-58
2022/08/23 00:57:06;;;;;;;0.43;0.43;;;19.80;62.20;;;;;;5070356;28;20193;-57
2022/08/23 00:59:32;;;;;;;0.20;0.20;;;19.80;60.60;;;;;;5069312;28;20201;-58
2022/08/23 01:01:59;;;;;;;0.50;0.50;;;19.80;58.90;;;;;;5025294;28;20190;-58
2022/08/23 01:04:29;;;;;;;0.90;0.80;;;19.80;60.30;;;;;;5030290;28;20312;-58
2022/08/23 01:07:00;;;;;;;0.50;0.50;;;19.80;61.50;;;;;;5050290;28;20182;-58
2022/08/23 01:09:26;;;;;;;0.60;0.60;;;19.80;62.20;;;;;;5057753;28;20203;-57
2022/08/23 01:11:59;;;;;;;0.70;0.70;;;19.80;62.50;;;;;;5021787;28;20261;-58
2022/08/23 01:14:36;;;;;;;1.00;0.73;;;19.80;64.30;;;;;;5054292;28;20276;-58
2022/08/23 01:17:19;;;;;;;1.10;0.80;;;19.70;65.80;;;;;;5051031;28;20185;-58
2022/08/23 01:19:47;;;;;;;1.10;1.00;;;19.70;69.60;;;;;;5044957;28;20194;-58
2022/08/23 01:22:33;;;;;;;2.10;1.20;;;19.70;71.10;;;;;;5051666;28;20190;-58
2022/08/23 01:25:01;;;;;;;2.00;1.00;;;19.70;72.90;;;;;;5056827;28;20335;-58
2022/08/23 01:27:27;;;;;;;1.70;1.10;;;19.60;74.50;;;;;;5076809;28;20196;-57
2022/08/23 01:29:53;;;;;;;1.20;1.10;;;19.50;76.30;;;;;;5085464;28;20189;-57
2022/08/23 01:32:19;;;;;;;2.07;1.07;;;19.40;77.70;;;;;;5060789;28;20192;-57
2022/08/23 01:34:45;;;;;;;0.80;0.80;;;19.30;76.80;;;;;;5065287;28;20193;-57
2022/08/23 01:37:11;;;;;;;1.00;0.90;;;19.20;78.50;;;;;;5077801;28;20193;-57
2022/08/23 01:39:37;;;;;;;1.07;1.00;;;19.00;79.20;;;;;;5059057;28;20190;-57
2022/08/23 01:42:03;;;;;;;2.07;1.30;;;18.90;80.50;;;;;;5093712;28;20199;-57
2022/08/23 01:44:29;;;;;;;1.73;1.00;;;18.80;80.30;;;;;;5087923;28;20287;-57
2022/08/23 01:46:55;;;;;;;2.20;1.80;;;18.70;82.20;;;;;;5078398;28;20189;-57
2022/08/23 01:49:20;;;;;;;1.93;1.73;;;18.70;80.90;;;;;;5074488;28;20242;-57
2022/08/23 01:51:46;;;;;;;2.47;2.27;;;18.60;81.00;;;;;;5086391;28;20216;-57
2022/08/23 01:54:12;;;;;;;3.37;2.20;;;18.40;82.50;;;;;;5060664;28;20263;-57
2022/08/23 01:56:39;;;;;;;3.60;2.10;;;18.30;84.80;;;;;;5075114;28;20208;-57
2022/08/23 01:59:07;;;;;;;3.87;3.47;;;18.30;85.20;;;;;;5076623;28;20182;-57
2022/08/23 02:01:33;;;;;;;3.57;3.27;;;18.30;85.40;;;;;;5072227;28;20275;-57
2022/08/23 02:03:58;;;;;;;4.93;4.30;;;18.30;85.70;;;;;;5060411;28;20277;-57
2022/08/23 02:06:24;;;;;;;4.90;4.50;;;18.20;86.50;;;;;;5055681;28;20651;-57
2022/08/23 02:09:01;;;;;;;6.10;4.63;;;18.20;87.10;;;;;;5059103;28;20204;-57
2022/08/23 02:11:31;;;;;;;5.17;3.30;;;18.20;86.70;;;;;;5046648;28;20189;-57
2022/08/23 02:13:59;;;;;;;4.07;2.50;;;18.10;87.10;;;;;;5076733;28;20192;-57
2022/08/23 02:16:32;;;;;;;2.67;2.00;;;18.10;87.20;;;;;;5076632;28;20207;-57
2022/08/23 02:18:58;;;;;;;1.30;1.10;;;18.10;86.40;;;;;;5084512;28;20174;-57
2022/08/23 02:21:25;;;;;;;2.07;1.57;;;18.00;85.80;;;;;;5055249;28;20193;-57
2022/08/23 02:23:51;;;;;;;1.40;1.20;;;17.80;85.20;;;;;;5080559;28;20181;-57
2022/08/23 02:26:18;;;;;;;1.67;1.20;;;17.70;86.50;;;;;;5054753;28;20233;-57
2022/08/23 02:28:44;;;;;;;1.17;1.07;;;17.70;87.40;;;;;;5077018;28;20188;-57
2022/08/23 02:31:11;;;;;;;1.60;1.30;;;17.60;86.90;;;;;;5057839;28;20197;-57
2022/08/23 02:33:36;;;;;;;1.47;1.17;;;17.60;87.30;;;;;;5095289;28;20178;-57
2022/08/23 02:36:02;;;;;;;3.33;1.60;;;17.60;88.80;;;;;;5052986;28;20255;-57
2022/08/23 02:38:28;;;;;;;1.37;1.17;;;17.60;88.90;;;;;;5032510;28;20196;-57
2022/08/23 02:40:53;;;;;;;3.33;1.27;;;17.60;88.80;;;;;;5041319;28;20195;-57
2022/08/23 02:43:19;;;;;;;2.80;1.30;;;17.60;89.50;;;;;;5063792;28;20196;-57
2022/08/23 02:45:45;;;;;;;1.60;1.30;;;17.50;89.70;;;;;;5047528;28;20239;-57
2022/08/23 02:48:10;;;;;;;1.53;1.10;;;17.50;89.50;;;;;;5060493;28;20212;-57
2022/08/23 02:50:36;;;;;;;1.10;1.00;;;17.40;89.60;;;;;;5042873;28;20186;-57
2022/08/23 02:53:03;;;;;;;0.90;0.90;;;17.40;90.20;;;;;;5053293;28;20189;-57
2022/08/23 02:55:28;;;;;;;1.57;1.00;;;17.30;89.60;;;;;;5043136;28;20203;-57
2022/08/23 02:57:54;;;;;;;2.23;1.20;;;17.20;89.90;;;;;;5040597;28;20193;-57
2022/08/23 03:00:21;;;;;;;3.40;1.27;;;17.20;90.40;;;;;;5059866;28;20292;-57
2022/08/23 03:02:46;;;;;;;3.13;1.30;;;17.10;90.30;;;;;;5094338;28;20188;-57
2022/08/23 03:05:13;;;;;;;3.60;1.40;;;17.00;90.20;;;;;;5068503;28;20221;-57
2022/08/23 03:07:39;;;;;;;2.30;1.03;;;16.90;90.50;;;;;;5087989;28;20268;-57
2022/08/23 03:10:07;;;;;;;3.23;1.30;;;16.80;91.00;;;;;;5094159;28;20287;-57
2022/08/23 03:12:33;;;;;;;1.43;1.17;;;16.80;91.50;;;;;;5071051;28;20191;-57
2022/08/23 03:14:59;;;;;;;2.20;1.37;;;16.80;91.80;;;;;;5057660;28;20185;-57
2022/08/23 03:17:24;;;;;;;4.37;1.27;;;16.70;91.60;;;;;;5076150;28;20190;-57
2022/08/23 03:19:53;;;;;;;1.40;1.30;;;16.70;91.80;;;;;;5064231;28;20276;-57
2022/08/23 03:22:19;;;;;;;1.97;1.00;;;16.60;91.80;;;;;;5060166;28;20259;-57
2022/08/23 03:24:45;;;;;;;2.20;1.40;;;16.50;91.80;;;;;;5060756;28;20209;-57
2022/08/23 03:27:11;;;;;;;1.97;1.20;;;16.50;91.90;;;;;;5058511;28;20190;-57
2022/08/23 03:29:37;;;;;;;2.47;1.73;;;16.50;92.40;;;;;;5056614;28;20296;-57
2022/08/23 03:32:04;;;;;;;2.27;1.47;;;16.60;93.00;;;;;;5072847;28;20194;-57
2022/08/23 03:34:30;;;;;;;1.60;1.43;;;16.70;93.50;;;;;;5049627;28;20190;-57
2022/08/23 03:36:56;;;;;;;5.23;1.60;;;16.70;93.40;;;;;;5087917;28;20277;-57
2022/08/23 03:39:22;;;;;;;3.77;1.80;;;16.70;93.40;;;;;;5051998;28;20300;-57
2022/08/23 03:41:48;;;;;;;2.83;1.50;;;16.70;93.60;;;;;;5071002;28;20185;-57
2022/08/23 03:44:14;;;;;;;2.93;1.60;;;16.70;93.70;;;;;;5075810;28;20213;-57
2022/08/23 03:46:39;;;;;;;3.63;1.67;;;16.70;93.70;;;;;;5076164;28;20192;-57
2022/08/23 03:49:05;;;;;;;1.90;1.47;;;16.70;93.90;;;;;;5075080;28;20177;-57
2022/08/23 03:51:33;;;;;;;2.37;1.63;;;16.70;93.90;;;;;;5049326;28;20182;-57
2022/08/23 03:53:59;;;;;;;3.07;1.97;;;16.70;94.00;;;;;;5076214;28;20181;-57
2022/08/23 03:56:35;;;;;;;5.50;1.90;;;16.70;93.90;;;;;;5065336;28;20185;-57
2022/08/23 03:59:07;;;;;;;2.63;1.30;;;16.70;93.90;;;;;;5074205;28;20189;-57
2022/08/23 04:01:33;;;;;;;3.27;1.47;;;16.60;93.80;;;;;;5075502;28;20189;-57
2022/08/23 04:03:59;;;;;;;2.00;1.60;;;16.50;93.40;;;;;;5059427;28;20190;-57
2022/08/23 04:06:26;;;;;;;1.90;1.67;;;16.40;93.20;;;;;;5057888;28;20189;-57
2022/08/23 04:08:53;;;;;;;1.73;1.40;;;16.30;93.30;;;;;;5081212;28;20189;-57
2022/08/23 04:11:19;;;;;;;1.57;1.30;;;16.20;93.30;;;;;;5075615;28;20319;-57
2022/08/23 04:13:45;;;;;;;5.37;1.53;;;16.10;92.70;;;;;;5059791;28;20198;-57
2022/08/23 04:16:11;;;;;;;0.77;0.77;;;16.10;93.40;;;;;;5074443;28;20188;-57
2022/08/23 04:18:37;;;;;;;2.10;1.20;;;15.80;91.70;;;;;;5042160;28;20275;-57
2022/08/23 04:21:09;;;;;;;2.50;1.80;;;15.70;92.10;;;;;;5075567;28;20355;-57
2022/08/23 04:23:35;;;;;;;1.60;1.50;;;15.70;92.60;;;;;;5077674;28;20271;-57
2022/08/23 04:26:01;;;;;;;2.37;1.10;;;15.70;93.30;;;;;;5041769;28;20242;-57
2022/08/23 04:28:27;;;;;;;2.50;1.20;;;15.60;92.40;;;;;;5025846;28;20202;-57
2022/08/23 04:30:52;;;;;;;1.40;1.10;;;15.60;92.70;;;;;;5020108;28;20190;-57
2022/08/23 04:33:18;;;;;;;1.17;1.07;;;15.60;92.50;;;;;;5059070;28;20186;-57
2022/08/23 04:35:44;;;;;;;1.93;0.93;;;15.40;92.10;;;;;;5042327;28;20202;-57
2022/08/23 04:38:11;;;;;;;3.03;1.10;;;15.50;92.40;;;;;;5058171;28;20186;-57
2022/08/23 04:43:21;;;;;;;1.70;1.20;;;15.40;92.80;;;;;;5043508;28;20198;-57
2022/08/23 04:45:47;;;;;;;1.40;1.30;;;15.30;92.80;;;;;;5036834;28;20210;-57
2022/08/23 04:48:13;;;;;;;1.30;1.20;;;15.30;92.80;;;;;;5057788;28;20198;-57
2022/08/23 04:50:40;;;;;;;1.80;1.70;;;15.30;93.00;;;;;;5058231;28;20252;-57
2022/08/23 04:53:06;;;;;;;3.40;1.50;;;15.30;93.30;;;;;;5058571;28;20185;-57
2022/08/23 04:55:32;;;;;;;2.87;1.20;;;15.30;93.30;;;;;;5057877;28;20277;-57
2022/08/23 04:57:58;;;;;;;2.93;1.23;;;15.30;93.40;;;;;;5025695;28;20289;-58
2022/08/23 05:00:23;;;;;;;1.43;1.00;;;15.30;93.40;;;;;;5041131;28;20193;-57
2022/08/23 05:02:49;;;;;;;1.87;1.10;;;15.20;93.50;;;;;;5045855;28;20194;-58
2022/08/23 05:05:15;;;;;;;3.03;1.60;;;15.30;93.70;;;;;;5048289;28;20222;-58
2022/08/23 05:07:41;;;;;;;2.83;1.33;;;15.30;93.40;;;;;;5056448;28;20196;-58
2022/08/23 05:10:09;;;;;;;1.93;1.20;;;15.30;93.30;;;;;;5059263;28;20186;-58
2022/08/23 05:12:35;;;;;;;4.63;1.10;;;15.30;93.50;;;;;;5057732;28;20179;-58
2022/08/23 05:15:01;;;;;;;2.30;0.87;;;15.30;93.20;;;;;;5036936;28;20245;-58
2022/08/23 05:17:26;;;;;;;3.07;1.30;;;15.30;93.50;;;;;;5044051;28;20185;-58
2022/08/23 05:19:52;;;;;;;2.80;1.07;;;15.30;93.60;;;;;;5056575;28;20181;-58
2022/08/23 05:22:18;;;;;;;1.73;1.33;;;15.30;93.50;;;;;;5060673;28;20187;-58
2022/08/23 05:25:13;;;;;;;3.07;1.37;;;15.30;93.40;;;;;;5056107;28;20211;-58
2022/08/23 05:27:38;;;;;;;1.57;1.47;;;15.30;93.70;;;;;;5074517;28;20255;-58
2022/08/23 05:30:06;;;;;;;1.93;1.53;;;15.30;93.90;;;;;;5024900;28;20186;-58
2022/08/23 05:32:31;;;;;;;1.83;1.30;;;15.40;94.20;;;;;;5059989;28;20187;-58
2022/08/23 05:34:57;;;;;;;5.10;1.50;;;15.50;94.20;;;;;;5030413;28;20192;-58
2022/08/23 05:37:23;;;;;;;1.60;1.00;;;15.50;94.40;;;;;;5057333;28;20192;-58
2022/08/23 05:39:48;;;;;;;1.70;1.10;;;15.50;94.20;;;;;;5064085;28;20206;-58
2022/08/23 05:42:15;;;;;;;1.20;1.03;;;15.50;93.90;;;;;;5054043;28;20236;-58
2022/08/23 05:44:41;;;;;;;1.23;1.00;;;15.50;93.90;;;;;;5055886;28;20228;-58
2022/08/23 05:47:09;;;;;;;1.77;1.03;;;15.40;93.60;;;;;;5017141;28;20190;-58
2022/08/23 05:49:35;;;;;;;1.97;0.90;;;15.50;93.90;;;;;;5073324;28;20200;-58
2022/08/23 05:52:06;;;;;;;4.37;1.10;;;15.50;94.00;;;;;;5056852;28;20189;-58
2022/08/23 05:54:32;;;;;;;5.27;1.20;;;15.50;94.00;;;;;;5059864;28;20193;-58
2022/08/23 05:56:58;;;;;;;3.97;1.13;;;15.50;94.30;;;;;;5061085;28;20218;-59
2022/08/23 05:59:24;;;;;;;2.57;1.00;;;15.60;94.40;;;;;;5056989;28;20198;-57
2022/08/23 06:01:49;;;;;;;3.37;1.17;;;15.60;94.40;;;;;;5046049;28;20239;-58
2022/08/23 06:04:16;;;;;;;2.43;1.10;;;15.60;94.40;;;;;;5042240;28;22037;-58
2022/08/23 06:06:42;;;;;;;1.93;0.77;;;15.50;93.90;;;;;;5057718;28;20274;-58
2022/08/23 06:09:12;;;;;;;1.70;0.90;;;15.40;93.80;;;;;;5060849;28;20346;-58
2022/08/23 06:11:38;;;;;;;1.87;1.20;;;15.30;93.80;;;;;;5050949;28;20244;-58
2022/08/23 06:14:06;;;;;;;1.07;0.83;;;15.30;93.90;;;;;;5055593;28;20186;-58
2022/08/23 06:16:38;;;;;;;1.47;0.90;;;15.30;93.90;;;;;;5055978;28;20266;-57
2022/08/23 06:19:05;;;;;;;2.20;1.10;;;15.30;93.60;;;;;;5055763;28;20247;-57
2022/08/23 06:21:32;;;;;;;0.93;0.83;;;15.30;93.80;;;;;;5063336;28;20178;-57
2022/08/23 06:23:58;;;;;;;2.13;1.40;;;15.30;93.70;;;;;;5058504;28;20205;-53
2022/08/23 06:26:37;;;;;;;1.83;1.20;;;15.30;94.00;;;;;;5065505;28;20296;-56
2022/08/23 06:29:10;;;;;;;3.33;0.90;;;15.30;93.80;;;;;;5076224;28;20188;-57
2022/08/23 06:31:46;;;;;;;2.30;1.17;;;15.30;93.90;;;;;;5096171;28;20181;-56
2022/08/23 06:34:32;;;;;;;3.83;1.37;;;15.30;93.60;;;;;;5083832;28;20196;-57
2022/08/23 06:37:01;;;;;;;4.23;1.20;;;15.40;93.90;;;;;;5075870;28;20187;-57
2022/08/23 06:39:29;;;;;;;2.20;1.40;;;15.40;93.90;;;;;;5067867;28;20181;-57
2022/08/23 06:42:05;;;;;;;3.37;1.37;;;15.40;93.90;;;;;;5085229;28;20193;-56
2022/08/23 06:44:34;;;;;;;1.73;1.23;;;15.40;93.80;;;;;;5086430;28;20201;-57
2022/08/23 06:47:00;;;;;;;2.53;1.47;;;15.50;94.10;;;;;;5081214;28;20232;-54
2022/08/23 06:49:26;;;;;;;2.27;1.60;;;15.50;94.10;;;;;;5075702;28;20181;-57
2022/08/23 06:51:55;;;;;;;2.03;1.07;;;15.50;94.30;;;;;;5056706;28;20202;-58
2022/08/23 06:54:24;;;;;;;2.63;1.27;;;15.50;93.50;;;;;;5075336;28;20284;-58
2022/08/23 06:56:50;;;;;;;1.00;1.00;;;15.60;93.70;;;;;;5076578;28;20181;-55
2022/08/23 06:59:17;;;;;;;2.87;1.50;;;15.70;93.70;;;;;;5053375;28;20182;-57
2022/08/23 07:01:50;;;;;;;3.97;1.43;;;15.70;93.90;;;;;;5066644;28;20242;-57
2022/08/23 07:04:20;;;;;;;2.27;1.03;;;15.80;93.80;;;;;;5067552;28;20182;-59
2022/08/23 07:06:46;;;;;;;1.97;1.30;;;15.80;93.90;;;;;;5075484;28;20194;-57
2022/08/23 07:09:12;;;;;;;1.10;1.00;;;15.80;93.80;;;;;;5041145;28;20194;-57
2022/08/23 07:11:38;;;;;;;1.20;1.10;;;15.80;93.60;;;;;;5076288;28;20181;-58
2022/08/23 07:14:07;;;;;;;1.30;1.07;;;15.80;93.40;;;;;;5073764;28;20190;-57
2022/08/23 07:16:34;;;;;;;2.27;1.13;;;15.70;93.40;;;;;;5076149;28;20181;-57
2022/08/23 07:19:00;;;;;;;3.50;1.10;;;15.80;93.50;;;;;;5075745;28;20188;-56
2022/08/23 07:21:26;;;;;;;1.73;1.10;;;15.80;93.30;;;;;;5059638;28;20193;-58
2022/08/23 07:23:52;;;;;;;1.20;0.80;;;15.70;93.40;;;;;;5065972;28;20186;-58
2022/08/23 07:26:18;;;;;;;1.53;0.93;;;15.80;92.90;;;;;;5055560;28;20300;-59
2022/08/23 07:28:43;;;;;;;2.60;1.03;;;15.80;93.00;;;;;;5049332;28;20190;-58
2022/08/23 07:31:15;;;;;;;1.73;1.00;;;15.80;93.20;;;;;;5063810;28;20198;-59
2022/08/23 07:33:42;;;;;;;1.20;0.90;;;15.80;92.90;;;;;;5077695;28;20188;-57
2022/08/23 07:36:09;;;;;;;0.83;0.80;;;15.80;93.40;;;;;;5075348;28;20197;-58
2022/08/23 07:38:35;;;;;;;1.87;1.00;;;15.80;93.70;;;;;;5076180;28;20189;-57
2022/08/23 07:41:02;;;;;;;2.43;1.03;;;15.80;93.30;;;;;;5075809;28;20200;-57
2022/08/23 07:43:29;;;;;;;1.83;1.00;;;15.90;93.40;;;;;;5092856;28;20193;-55
2022/08/23 07:45:54;;;;;;;2.53;1.23;;;15.90;93.40;;;;;;5064348;28;20209;-58
2022/08/23 07:48:20;;;;;;;2.67;1.20;;;16.00;93.50;;;;;;5031355;28;20291;-57
2022/08/23 07:50:53;;;;;;;1.00;0.90;;;16.00;93.40;;;;;;5059118;28;20256;-59
2022/08/23 07:53:19;;;;;;;3.13;1.20;;;16.10;93.60;;;;;;5061980;28;20181;-59
2022/08/23 07:55:45;;;;;;;2.03;1.10;;;16.20;93.70;;;;;;5093909;28;20190;-57
2022/08/23 07:58:11;;;;;;;1.40;1.00;;;16.30;93.60;;;;;;5035925;28;20224;-56
2022/08/23 08:00:37;;;;;;;1.90;0.80;;;16.30;93.90;;;;;;5049520;28;20193;-58
2022/08/23 08:03:03;;;;;;;0.73;0.63;;;16.40;93.80;;;;;;5043445;28;20189;-58
2022/08/23 08:05:31;;;;;;;1.77;0.60;;;16.50;93.80;;;;;;5051490;28;20219;-59
2022/08/23 08:07:57;;;;;;;2.13;1.10;;;16.50;93.50;;;;;;5079663;28;20186;-59
2022/08/23 08:10:23;;;;;;;1.37;0.90;;;16.50;93.30;;;;;;5068362;28;20272;-58
2022/08/23 08:12:49;;;;;;;0.60;0.50;;;16.60;92.30;;;;;;5077270;28;20197;-58
2022/08/23 08:15:15;;;;;;;0.83;0.83;;;16.60;92.90;;;;;;5073643;28;20201;-59
2022/08/23 08:17:41;;;;;;;1.13;0.97;;;16.60;92.90;;;;;;5091049;28;20189;-58
2022/08/23 08:20:07;;;;;;;1.17;0.60;;;16.60;93.30;;;;;;5081988;28;20200;-58
2022/08/23 08:22:33;;;;;;;1.17;0.80;;;16.70;93.20;;;;;;5053706;28;20189;-58
2022/08/23 08:24:59;;;;;;;0.63;0.57;;;16.70;92.50;;;;;;5074267;28;20213;-58
2022/08/23 08:27:24;;;;;;;1.10;0.93;;;16.70;92.20;;;;;;5038909;28;20229;-59
2022/08/23 08:29:50;;;;;;;0.50;0.50;;;16.80;92.90;;;;;;5050579;28;20190;-58
2022/08/23 08:32:16;;;;;;;1.90;0.60;;;16.80;93.10;;;;;;5062848;28;20181;-59
2022/08/23 08:34:42;;;;;;;1.47;0.60;;;16.80;92.30;;;;;;5045719;28;20207;-58
2022/08/23 08:37:07;;;;;;;0.63;0.50;;;16.80;92.20;;;;;;5084561;28;20209;-59
2022/08/23 08:39:33;;;;;;;1.90;0.53;;;16.80;92.30;;;;;;5078753;28;20238;-58
2022/08/23 08:42:11;;;;;;;0.83;0.70;;;16.90;91.30;;;;;;5074818;28;20186;-58
2022/08/23 08:44:59;;;;;;;1.90;0.77;;;16.90;91.30;;;;;;5089497;28;20216;-58
2022/08/23 08:47:39;;;;;;;1.90;0.70;;;16.90;91.80;;;;;;5094708;28;20196;-57
2022/08/23 08:50:04;;;;;;;0.70;0.70;;;17.00;91.70;;;;;;5073729;28;20202;-56
2022/08/23 08:52:36;;;;;;;1.63;0.50;;;16.90;91.90;;;;;;5066559;28;20195;-55
2022/08/23 08:55:09;;;;;;;0.73;0.73;;;17.00;91.10;;;;;;5078440;28;20213;-51
2022/08/23 08:57:42;;;;;;;0.77;0.67;;;17.00;92.10;;;;;;5075242;28;20193;-53
2022/08/23 09:00:13;;;;;;;1.70;0.60;;;17.00;91.70;;;;;;5078572;28;20209;-55
2022/08/23 09:02:40;;;;;;;0.70;0.63;;;17.10;90.80;;;;;;5079294;28;20228;-53
2022/08/23 09:05:14;;;;;;;1.27;0.70;;;17.10;90.90;;;;;;5064521;28;20271;-56
2022/08/23 09:07:56;;;;;;;0.60;0.60;;;17.10;91.80;;;;;;5078197;28;20212;-58
2022/08/23 09:10:40;;;;;;;1.50;0.67;;;17.10;92.10;;;;;;5078423;28;20181;-59
2022/08/23 09:13:29;;;;;;;1.17;0.67;;;17.30;92.40;;;;;;5074495;28;20195;-54
2022/08/23 09:16:31;;;;;;;0.90;0.60;;;17.30;92.50;;;;;;5074701;28;20292;-57
2022/08/23 09:19:00;;;;;;;1.10;0.53;;;17.30;90.20;;;;;;5088568;28;20199;-57
2022/08/23 09:21:25;;;;;;;0.50;0.50;;;17.30;91.10;;;;;;5081111;28;20197;-58
2022/08/23 09:23:51;;;;;;;1.83;0.70;;;17.30;89.70;;;;;;5058676;28;20190;-59
2022/08/23 09:26:24;;;;;;;0.87;0.50;;;17.30;89.70;;;;;;5047462;28;20248;-59
2022/08/23 09:28:52;;;;;;;0.53;0.53;;;17.30;89.70;;;;;;5067159;28;20182;-57
2022/08/23 09:32:00;;;;;;;1.23;0.70;;;17.30;91.00;;;;;;5069382;28;20257;-58
2022/08/23 09:34:29;;;;;;;1.33;0.90;;;17.40;91.90;;;;;;5091332;28;20189;-57
2022/08/23 09:37:21;;;;;;;0.60;0.60;;;17.40;91.40;;;;;;5085154;28;20201;-58
2022/08/23 09:39:54;;;;;;;0.97;0.70;;;17.40;91.30;;;;;;5057442;28;20201;-57
2022/08/23 09:42:31;;;;;;;0.57;0.57;;;17.40;91.70;;;;;;5094153;28;20204;-57
2022/08/23 09:44:57;;;;;;;0.57;0.57;;;17.40;91.10;;;;;;5085774;28;20282;-58
2022/08/23 09:47:39;;;;;;;1.00;0.80;;;17.50;92.00;;;;;;5049330;28;20220;-58
2022/08/23 09:50:40;;;;;;;0.93;0.63;;;17.50;90.30;;;;;;5073320;28;20189;-58
2022/08/23 09:53:09;;;;;;;0.67;0.50;;;17.50;90.90;;;;;;5076750;28;20212;-59
2022/08/23 09:55:37;;;;;;;0.77;0.50;;;17.50;88.80;;;;;;5078063;28;20194;-58
2022/08/23 09:58:14;;;;;;;0.90;0.63;;;17.40;88.40;;;;;;5075402;28;20221;-59
2022/08/23 10:00:40;;;;;;;1.37;0.70;;;17.40;89.00;;;;;;5077556;28;20193;-58
2022/08/23 10:03:25;;;;;;;1.57;0.83;;;17.40;90.00;;;;;;5086607;28;20282;-58
2022/08/23 10:06:01;;;;;;;0.90;0.90;;;17.50;88.30;;;;;;5075997;28;20351;-59
2022/08/23 10:08:31;;;;;;;0.80;0.80;;;17.50;90.30;;;;;;5053636;28;20192;-57
2022/08/23 10:11:12;;;;;;;2.17;0.80;;;17.50;89.50;;;;;;5079785;28;20284;-58
2022/08/23 10:13:40;;;;;;;0.87;0.87;;;17.60;88.70;;;;;;5068382;28;20247;-58
2022/08/23 10:16:14;;;;;;;1.30;1.10;;;17.70;89.30;;;;;;5071145;28;20196;-59
2022/08/23 10:19:06;;;;;;;0.90;0.90;;;17.70;90.20;;;;;;5094582;28;20277;-58
2022/08/23 10:21:53;;;;;;;1.00;0.90;;;17.70;90.50;;;;;;5074858;28;20209;-56
2022/08/23 10:24:43;;;;;;;1.17;1.10;;;17.70;90.20;;;;;;5098423;28;20271;-57
2022/08/23 10:30:14;;;;;;;0.80;0.80;;;17.80;91.10;;;;;;5091605;28;20209;-57
2022/08/23 10:33:05;;;;;;;0.70;0.70;;;17.80;87.30;;;;;;5074460;28;20263;-58
2022/08/23 10:35:44;;;;;;;3.67;1.30;;;17.80;84.30;;;;;;5076846;28;20184;-58
2022/08/23 10:38:22;;;;;;;3.13;1.20;;;17.80;87.00;;;;;;5067063;28;20258;-59
2022/08/23 10:40:53;;;;;;;0.90;0.80;;;17.70;88.30;;;;;;5075055;28;20235;-59
2022/08/23 10:43:31;;;;;;;0.83;0.83;;;17.70;88.00;;;;;;5064729;28;20184;-57
2022/08/23 10:46:00;;;;;;;1.30;1.20;;;17.60;86.60;;;;;;5075676;28;20291;-57
2022/08/23 10:48:53;;;;;;;1.73;1.10;;;17.60;87.50;;;;;;5064380;28;20173;-57
2022/08/23 10:51:27;;;;;;;1.10;1.10;;;17.50;85.20;;;;;;5097540;28;20271;-57
2022/08/23 10:54:05;;;;;;;3.97;1.40;;;17.50;83.60;;;;;;5072369;28;20234;-58
2022/08/23 10:56:31;;;;;;;1.20;1.10;;;17.40;86.30;;;;;;5063620;28;20193;-57
2022/08/23 10:59:19;;;;;;;1.97;1.20;;;17.40;86.20;;;;;;5059852;28;20200;-57
2022/08/23 11:01:51;;;;;;;1.87;1.10;;;17.30;87.80;;;;;;5094305;28;20191;-59
2022/08/23 11:04:47;;;;;;;1.40;1.30;;;17.30;88.10;;;;;;5076161;28;20173;-57
2022/08/23 11:07:22;;;;;;;2.37;1.40;;;17.30;85.60;;;;;;5072276;28;20184;-58
2022/08/23 11:10:23;;;;;;;2.03;1.40;;;17.30;86.80;;;;;;5080094;28;20182;-59
2022/08/23 11:13:07;;;;;;;2.23;1.40;;;17.30;88.40;;;;;;5074505;28;20245;-59
2022/08/23 11:15:45;;;;;;;1.30;1.20;;;17.30;88.40;;;;;;5082724;28;20182;-59
2022/08/23 11:18:41;;;;;;;2.57;1.77;;;17.30;87.30;;;;;;5056422;28;20186;-59
2022/08/23 11:21:24;;;;;;;1.47;1.37;;;17.30;87.00;;;;;;5061180;28;20280;-59
2022/08/23 11:24:13;;;;;;;2.93;1.63;;;17.30;87.50;;;;;;5072630;28;20178;-59
2022/08/23 11:26:40;;;;;;;1.73;1.43;;;17.30;88.90;;;;;;5092089;28;20228;-59
2022/08/23 11:29:05;;;;;;;1.73;1.27;;;17.30;89.90;;;;;;5091916;28;20266;-59
2022/08/23 11:31:36;;;;;;;1.73;1.33;;;17.30;89.70;;;;;;5066282;28;20235;-57
2022/08/23 11:34:05;;;;;;;1.47;1.13;;;17.30;88.70;;;;;;5078316;28;20235;-57
2022/08/23 11:36:32;;;;;;;2.50;1.50;;;17.30;85.30;;;;;;5067294;28;20252;-59
2022/08/23 11:39:01;;;;;;;1.30;1.20;;;17.30;86.70;;;;;;5077886;28;20182;-59
2022/08/23 11:41:29;;;;;;;1.57;1.40;;;17.30;85.20;;;;;;5084042;28;20216;-58
2022/08/23 11:43:55;;;;;;;3.47;1.67;;;17.30;86.70;;;;;;5079942;28;20177;-59
2022/08/23 11:46:26;;;;;;;1.83;1.60;;;17.30;87.50;;;;;;5080416;28;20212;-59
2022/08/23 11:48:58;;;;;;;2.13;1.40;;;17.30;87.50;;;;;;5079120;28;20185;-59
2022/08/23 11:51:36;;;;;;;1.80;1.70;;;17.30;86.40;;;;;;5079696;28;20181;-59
2022/08/23 11:54:04;;;;;;;3.27;1.63;;;17.30;87.60;;;;;;5078712;28;20189;-59
2022/08/23 11:56:39;;;;;;;3.23;1.20;;;17.30;87.30;;;;;;5096008;28;20184;-59
2022/08/23 11:59:33;;;;;;;2.27;1.37;;;17.40;85.50;;;;;;5078655;28;20184;-59
2022/08/23 12:02:37;;;;;;;1.40;1.30;;;17.40;84.90;;;;;;5042167;28;20205;-59
2022/08/23 12:05:21;;;;;;;2.50;1.50;;;17.50;87.30;;;;;;5065419;28;20197;-59
2022/08/23 12:07:52;;;;;;;1.50;1.40;;;17.50;88.30;;;;;;5069225;28;20200;-59
2022/08/23 12:10:41;;;;;;;2.40;1.30;;;17.50;88.20;;;;;;5079444;28;20207;-59
2022/08/23 12:13:21;;;;;;;1.37;1.27;;;17.60;86.80;;;;;;5071721;28;20209;-59
2022/08/23 12:16:18;;;;;;;1.87;1.50;;;17.70;85.40;;;;;;5077819;28;20228;-59
2022/08/23 12:18:54;;;;;;;3.30;1.50;;;17.70;85.40;;;;;;5075134;28;20231;-59
2022/08/23 12:21:28;;;;;;;2.13;1.37;;;17.70;84.60;;;;;;5073443;28;20203;-59
2022/08/23 12:24:02;;;;;;;5.20;1.57;;;17.70;85.70;;;;;;5092794;28;20185;-59
2022/08/23 12:26:58;;;;;;;1.30;1.20;;;17.70;83.70;;;;;;5073529;28;20244;-59
2022/08/23 12:29:33;;;;;;;1.80;1.20;;;17.80;86.10;;;;;;5068883;28;20189;-57
2022/08/23 12:32:14;;;;;;;2.83;1.60;;;17.80;82.20;;;;;;5073800;28;20174;-58
2022/08/23 12:35:02;;;;;;;2.87;1.80;;;17.90;83.80;;;;;;5057027;28;20181;-58
2022/08/23 12:37:53;;;;;;;3.50;1.63;;;17.90;86.60;;;;;;5083917;28;20185;-57
2022/08/23 12:40:29;;;;;;;1.60;1.50;;;17.90;83.70;;;;;;5075112;28;20201;-57
2022/08/23 12:43:10;;;;;;;3.63;1.60;;;17.90;84.60;;;;;;5079102;28;20185;-57
2022/08/23 12:45:42;;;;;;;2.10;1.60;;;18.00;86.60;;;;;;5076064;28;20212;-58
2022/08/23 12:48:12;;;;;;;1.83;1.47;;;18.00;87.50;;;;;;5077551;28;20174;-58
2022/08/23 12:50:42;;;;;;;3.23;1.47;;;18.00;88.70;;;;;;5077083;28;20188;-58
2022/08/23 12:53:12;;;;;;;2.70;1.20;;;18.10;86.50;;;;;;5082063;28;20268;-59
2022/08/23 12:55:49;;;;;;;2.17;1.23;;;18.20;84.80;;;;;;5092353;28;20248;-59
2022/08/23 12:58:27;;;;;;;1.57;1.43;;;18.20;82.50;;;;;;5094491;28;20221;-58
2022/08/23 13:00:57;;;;;;;3.17;1.33;;;18.20;85.90;;;;;;5092294;28;20259;-59
2022/08/23 13:03:40;;;;;;;1.87;1.27;;;18.20;82.10;;;;;;5071679;28;20181;-58
2022/08/23 13:06:13;;;;;;;4.53;1.40;;;18.20;84.70;;;;;;5077171;28;20205;-59
2022/08/23 13:08:47;;;;;;;1.40;1.03;;;18.20;84.00;;;;;;5077370;28;20186;-59
2022/08/23 13:11:18;;;;;;;1.80;1.30;;;18.20;81.30;;;;;;5066641;28;20184;-59
2022/08/23 13:13:44;;;;;;;1.10;1.00;;;18.20;84.20;;;;;;5049883;28;20200;-58
2022/08/23 13:16:32;;;;;;;1.60;1.50;;;18.20;85.50;;;;;;5080020;28;20185;-58
2022/08/23 13:19:30;;;;;;;2.00;1.50;;;18.20;84.30;;;;;;5074520;28;20204;-59